sensor_id;sensor_type;location;lat;lon;timestamp;P1;durP1;ratioP1;P2;durP2;ratioP2
11675;SDS011;5894;42.768;23.404;2024-02-15T00:01:07;8.97;;;7.37;;
11675;SDS011;5894;42.768;23.404;2024-02-15T00:03:34;10.40;;;8.10;;
11675;SDS011;5894;42.768;23.404;2024-02-15T00:06:03;8.90;;;7.70;;
11675;SDS011;5894;42.768;23.404;2024-02-15T00:08:30;10.67;;;8.23;;
11675;SDS011;5894;42.768;23.404;2024-02-15T00:10:58;11.87;;;7.47;;
11675;SDS011;5894;42.768;23.404;2024-02-15T00:13:25;9.30;;;7.17;;
11675;SDS011;5894;42.768;23.404;2024-02-15T00:15:52;10.73;;;7.83;;
11675;SDS011;5894;42.768;23.404;2024-02-15T00:18:19;10.07;;;7.57;;
11675;SDS011;5894;42.768;23.404;2024-02-15T00:20:45;11.00;;;7.80;;
11675;SDS011;5894;42.768;23.404;2024-02-15T00:23:14;10.47;;;7.30;;
11675;SDS011;5894;42.768;23.404;2024-02-15T00:25:42;9.57;;;7.20;;
11675;SDS011;5894;42.768;23.404;2024-02-15T00:28:10;9.63;;;7.30;;
11675;SDS011;5894;42.768;23.404;2024-02-15T00:30:37;10.00;;;8.27;;
11675;SDS011;5894;42.768;23.404;2024-02-15T00:33:04;10.07;;;7.40;;
11675;SDS011;5894;42.768;23.404;2024-02-15T00:35:30;9.07;;;7.30;;
11675;SDS011;5894;42.768;23.404;2024-02-15T00:37:57;9.57;;;7.23;;
11675;SDS011;5894;42.768;23.404;2024-02-15T00:40:26;8.83;;;6.73;;
11675;SDS011;5894;42.768;23.404;2024-02-15T00:42:53;11.33;;;7.63;;
11675;SDS011;5894;42.768;23.404;2024-02-15T00:45:20;8.87;;;7.40;;
11675;SDS011;5894;42.768;23.404;2024-02-15T00:47:46;9.00;;;6.97;;
11675;SDS011;5894;42.768;23.404;2024-02-15T00:50:13;7.70;;;6.30;;
11675;SDS011;5894;42.768;23.404;2024-02-15T00:52:40;8.30;;;7.07;;
11675;SDS011;5894;42.768;23.404;2024-02-15T00:55:07;8.77;;;7.30;;
11675;SDS011;5894;42.768;23.404;2024-02-15T00:57:36;11.40;;;7.33;;
11675;SDS011;5894;42.768;23.404;2024-02-15T01:00:03;10.27;;;7.67;;
11675;SDS011;5894;42.768;23.404;2024-02-15T01:02:31;10.07;;;7.93;;
11675;SDS011;5894;42.768;23.404;2024-02-15T01:04:59;8.70;;;7.20;;
11675;SDS011;5894;42.768;23.404;2024-02-15T01:07:25;11.30;;;7.73;;
11675;SDS011;5894;42.768;23.404;2024-02-15T01:09:53;9.43;;;7.40;;
11675;SDS011;5894;42.768;23.404;2024-02-15T01:12:20;9.93;;;7.97;;
11675;SDS011;5894;42.768;23.404;2024-02-15T01:14:48;9.80;;;7.80;;
11675;SDS011;5894;42.768;23.404;2024-02-15T01:17:16;10.77;;;7.97;;
11675;SDS011;5894;42.768;23.404;2024-02-15T01:19:42;10.03;;;7.90;;
11675;SDS011;5894;42.768;23.404;2024-02-15T01:22:10;11.60;;;7.90;;
11675;SDS011;5894;42.768;23.404;2024-02-15T01:24:38;11.07;;;7.63;;
11675;SDS011;5894;42.768;23.404;2024-02-15T01:27:05;9.93;;;7.33;;
11675;SDS011;5894;42.768;23.404;2024-02-15T01:29:32;9.37;;;7.63;;
11675;SDS011;5894;42.768;23.404;2024-02-15T01:32:01;9.10;;;7.33;;
11675;SDS011;5894;42.768;23.404;2024-02-15T01:34:28;10.17;;;7.67;;
11675;SDS011;5894;42.768;23.404;2024-02-15T01:36:55;9.13;;;7.10;;
11675;SDS011;5894;42.768;23.404;2024-02-15T01:39:22;9.00;;;6.87;;
11675;SDS011;5894;42.768;23.404;2024-02-15T01:41:49;9.63;;;7.23;;
11675;SDS011;5894;42.768;23.404;2024-02-15T01:44:17;9.63;;;7.40;;
11675;SDS011;5894;42.768;23.404;2024-02-15T01:46:45;9.30;;;6.90;;
11675;SDS011;5894;42.768;23.404;2024-02-15T01:49:16;7.37;;;6.50;;
11675;SDS011;5894;42.768;23.404;2024-02-15T01:51:43;10.17;;;7.37;;
11675;SDS011;5894;42.768;23.404;2024-02-15T01:54:11;9.23;;;7.33;;
11675;SDS011;5894;42.768;23.404;2024-02-15T01:56:40;12.63;;;7.40;;
11675;SDS011;5894;42.768;23.404;2024-02-15T01:59:08;8.23;;;7.27;;
11675;SDS011;5894;42.768;23.404;2024-02-15T02:01:37;10.23;;;7.37;;
11675;SDS011;5894;42.768;23.404;2024-02-15T02:04:05;10.00;;;7.50;;
11675;SDS011;5894;42.768;23.404;2024-02-15T02:06:34;10.47;;;7.40;;
11675;SDS011;5894;42.768;23.404;2024-02-15T02:09:03;9.40;;;7.00;;
11675;SDS011;5894;42.768;23.404;2024-02-15T02:11:30;10.20;;;7.50;;
11675;SDS011;5894;42.768;23.404;2024-02-15T02:13:58;10.70;;;7.90;;
11675;SDS011;5894;42.768;23.404;2024-02-15T02:16:25;10.53;;;7.73;;
11675;SDS011;5894;42.768;23.404;2024-02-15T02:18:52;9.97;;;7.97;;
11675;SDS011;5894;42.768;23.404;2024-02-15T02:21:20;9.77;;;7.50;;
11675;SDS011;5894;42.768;23.404;2024-02-15T02:23:52;17.70;;;10.93;;
11675;SDS011;5894;42.768;23.404;2024-02-15T02:26:21;11.10;;;7.80;;
11675;SDS011;5894;42.768;23.404;2024-02-15T02:28:49;11.67;;;7.57;;
11675;SDS011;5894;42.768;23.404;2024-02-15T02:31:18;10.50;;;7.27;;
11675;SDS011;5894;42.768;23.404;2024-02-15T02:33:47;8.80;;;6.93;;
11675;SDS011;5894;42.768;23.404;2024-02-15T02:36:17;9.97;;;7.57;;
11675;SDS011;5894;42.768;23.404;2024-02-15T02:38:44;11.53;;;7.50;;
11675;SDS011;5894;42.768;23.404;2024-02-15T02:41:11;10.17;;;7.67;;
11675;SDS011;5894;42.768;23.404;2024-02-15T02:43:40;10.07;;;7.67;;
11675;SDS011;5894;42.768;23.404;2024-02-15T02:46:09;11.93;;;8.23;;
11675;SDS011;5894;42.768;23.404;2024-02-15T02:48:37;9.93;;;7.77;;
11675;SDS011;5894;42.768;23.404;2024-02-15T02:51:06;10.60;;;7.47;;
11675;SDS011;5894;42.768;23.404;2024-02-15T02:53:33;9.67;;;7.20;;
11675;SDS011;5894;42.768;23.404;2024-02-15T02:56:01;11.63;;;7.67;;
11675;SDS011;5894;42.768;23.404;2024-02-15T02:58:29;9.80;;;7.27;;
11675;SDS011;5894;42.768;23.404;2024-02-15T03:00:57;10.83;;;7.10;;
11675;SDS011;5894;42.768;23.404;2024-02-15T03:03:25;9.37;;;6.90;;
11675;SDS011;5894;42.768;23.404;2024-02-15T03:05:52;9.83;;;7.50;;
11675;SDS011;5894;42.768;23.404;2024-02-15T03:08:20;12.03;;;7.60;;
11675;SDS011;5894;42.768;23.404;2024-02-15T03:10:47;10.67;;;7.60;;
11675;SDS011;5894;42.768;23.404;2024-02-15T03:13:14;8.70;;;6.97;;
11675;SDS011;5894;42.768;23.404;2024-02-15T03:15:44;11.23;;;7.90;;
11675;SDS011;5894;42.768;23.404;2024-02-15T03:18:14;10.50;;;7.60;;
11675;SDS011;5894;42.768;23.404;2024-02-15T03:20:41;10.57;;;7.53;;
11675;SDS011;5894;42.768;23.404;2024-02-15T03:23:08;12.27;;;8.50;;
11675;SDS011;5894;42.768;23.404;2024-02-15T03:25:36;9.90;;;7.47;;
11675;SDS011;5894;42.768;23.404;2024-02-15T03:28:03;12.83;;;8.60;;
11675;SDS011;5894;42.768;23.404;2024-02-15T03:30:31;9.87;;;7.50;;
11675;SDS011;5894;42.768;23.404;2024-02-15T03:32:59;11.00;;;7.70;;
11675;SDS011;5894;42.768;23.404;2024-02-15T03:35:28;9.97;;;7.37;;
11675;SDS011;5894;42.768;23.404;2024-02-15T03:37:56;11.53;;;7.60;;
11675;SDS011;5894;42.768;23.404;2024-02-15T03:40:24;13.03;;;8.20;;
11675;SDS011;5894;42.768;23.404;2024-02-15T03:42:52;11.00;;;7.77;;
11675;SDS011;5894;42.768;23.404;2024-02-15T03:45:19;12.53;;;7.90;;
11675;SDS011;5894;42.768;23.404;2024-02-15T03:47:50;12.17;;;7.67;;
11675;SDS011;5894;42.768;23.404;2024-02-15T03:50:17;12.57;;;7.77;;
11675;SDS011;5894;42.768;23.404;2024-02-15T03:52:48;12.87;;;8.10;;
11675;SDS011;5894;42.768;23.404;2024-02-15T03:55:15;14.07;;;7.80;;
11675;SDS011;5894;42.768;23.404;2024-02-15T03:57:42;11.57;;;7.90;;
11675;SDS011;5894;42.768;23.404;2024-02-15T04:00:11;13.30;;;8.33;;
11675;SDS011;5894;42.768;23.404;2024-02-15T04:02:39;11.27;;;8.07;;
11675;SDS011;5894;42.768;23.404;2024-02-15T04:05:06;12.63;;;8.50;;
11675;SDS011;5894;42.768;23.404;2024-02-15T04:07:34;13.87;;;8.70;;
11675;SDS011;5894;42.768;23.404;2024-02-15T04:10:05;13.80;;;8.73;;
11675;SDS011;5894;42.768;23.404;2024-02-15T04:12:33;12.00;;;9.10;;
11675;SDS011;5894;42.768;23.404;2024-02-15T04:15:00;11.43;;;8.13;;
11675;SDS011;5894;42.768;23.404;2024-02-15T04:17:31;14.00;;;8.63;;
11675;SDS011;5894;42.768;23.404;2024-02-15T04:20:00;13.70;;;8.60;;
11675;SDS011;5894;42.768;23.404;2024-02-15T04:22:29;11.97;;;8.00;;
11675;SDS011;5894;42.768;23.404;2024-02-15T04:24:57;14.57;;;8.93;;
11675;SDS011;5894;42.768;23.404;2024-02-15T04:27:25;11.90;;;8.93;;
11675;SDS011;5894;42.768;23.404;2024-02-15T04:29:52;14.13;;;9.00;;
11675;SDS011;5894;42.768;23.404;2024-02-15T04:32:20;14.53;;;8.97;;
11675;SDS011;5894;42.768;23.404;2024-02-15T04:34:47;15.20;;;9.67;;
11675;SDS011;5894;42.768;23.404;2024-02-15T04:37:14;12.80;;;8.80;;
11675;SDS011;5894;42.768;23.404;2024-02-15T04:39:42;14.33;;;9.23;;
11675;SDS011;5894;42.768;23.404;2024-02-15T04:42:09;15.90;;;9.13;;
11675;SDS011;5894;42.768;23.404;2024-02-15T04:44:39;13.40;;;9.00;;
11675;SDS011;5894;42.768;23.404;2024-02-15T04:47:06;12.97;;;9.17;;
11675;SDS011;5894;42.768;23.404;2024-02-15T04:49:33;13.20;;;8.73;;
11675;SDS011;5894;42.768;23.404;2024-02-15T04:52:03;14.53;;;8.93;;
11675;SDS011;5894;42.768;23.404;2024-02-15T04:54:31;14.67;;;8.87;;
11675;SDS011;5894;42.768;23.404;2024-02-15T04:56:59;16.07;;;8.73;;
11675;SDS011;5894;42.768;23.404;2024-02-15T04:59:26;15.60;;;9.40;;
11675;SDS011;5894;42.768;23.404;2024-02-15T05:01:55;13.50;;;9.40;;
11675;SDS011;5894;42.768;23.404;2024-02-15T05:04:25;13.57;;;8.70;;
11675;SDS011;5894;42.768;23.404;2024-02-15T05:06:52;14.73;;;9.60;;
11675;SDS011;5894;42.768;23.404;2024-02-15T05:09:19;12.10;;;9.20;;
11675;SDS011;5894;42.768;23.404;2024-02-15T05:11:48;11.67;;;9.00;;
11675;SDS011;5894;42.768;23.404;2024-02-15T05:14:15;13.03;;;8.80;;
11675;SDS011;5894;42.768;23.404;2024-02-15T05:16:44;11.23;;;8.53;;
11675;SDS011;5894;42.768;23.404;2024-02-15T05:19:14;15.40;;;8.87;;
11675;SDS011;5894;42.768;23.404;2024-02-15T05:21:42;12.13;;;8.73;;
11675;SDS011;5894;42.768;23.404;2024-02-15T05:24:10;12.07;;;8.50;;
11675;SDS011;5894;42.768;23.404;2024-02-15T05:26:39;12.87;;;8.53;;
11675;SDS011;5894;42.768;23.404;2024-02-15T05:29:08;12.30;;;9.17;;
11675;SDS011;5894;42.768;23.404;2024-02-15T05:31:36;12.07;;;8.30;;
11675;SDS011;5894;42.768;23.404;2024-02-15T05:34:05;13.63;;;9.00;;
11675;SDS011;5894;42.768;23.404;2024-02-15T05:36:38;12.67;;;8.77;;
11675;SDS011;5894;42.768;23.404;2024-02-15T05:39:05;12.30;;;8.97;;
11675;SDS011;5894;42.768;23.404;2024-02-15T05:41:32;12.43;;;8.73;;
11675;SDS011;5894;42.768;23.404;2024-02-15T05:43:59;12.63;;;7.93;;
11675;SDS011;5894;42.768;23.404;2024-02-15T05:46:26;13.20;;;8.37;;
11675;SDS011;5894;42.768;23.404;2024-02-15T05:48:54;12.13;;;8.63;;
11675;SDS011;5894;42.768;23.404;2024-02-15T05:51:21;14.53;;;8.57;;
11675;SDS011;5894;42.768;23.404;2024-02-15T05:53:50;14.23;;;9.07;;
11675;SDS011;5894;42.768;23.404;2024-02-15T05:56:20;15.17;;;9.13;;
11675;SDS011;5894;42.768;23.404;2024-02-15T05:58:47;14.57;;;8.90;;
11675;SDS011;5894;42.768;23.404;2024-02-15T06:01:14;15.20;;;8.63;;
11675;SDS011;5894;42.768;23.404;2024-02-15T06:03:40;11.97;;;8.13;;
11675;SDS011;5894;42.768;23.404;2024-02-15T06:06:09;12.70;;;8.70;;
11675;SDS011;5894;42.768;23.404;2024-02-15T06:08:37;12.87;;;8.83;;
11675;SDS011;5894;42.768;23.404;2024-02-15T06:11:05;12.57;;;8.93;;
11675;SDS011;5894;42.768;23.404;2024-02-15T06:13:33;14.27;;;9.10;;
11675;SDS011;5894;42.768;23.404;2024-02-15T06:16:00;13.33;;;9.40;;
11675;SDS011;5894;42.768;23.404;2024-02-15T06:18:28;15.53;;;9.47;;
11675;SDS011;5894;42.768;23.404;2024-02-15T06:20:59;15.10;;;9.67;;
11675;SDS011;5894;42.768;23.404;2024-02-15T06:23:27;14.93;;;9.50;;
11675;SDS011;5894;42.768;23.404;2024-02-15T06:25:58;13.60;;;9.40;;
11675;SDS011;5894;42.768;23.404;2024-02-15T06:28:27;13.23;;;9.30;;
11675;SDS011;5894;42.768;23.404;2024-02-15T06:31:13;13.03;;;9.43;;
11675;SDS011;5894;42.768;23.404;2024-02-15T06:33:57;13.13;;;9.30;;
11675;SDS011;5894;42.768;23.404;2024-02-15T06:36:45;13.40;;;9.57;;
11675;SDS011;5894;42.768;23.404;2024-02-15T06:39:31;17.63;;;9.20;;
11675;SDS011;5894;42.768;23.404;2024-02-15T06:42:06;13.37;;;9.03;;
11675;SDS011;5894;42.768;23.404;2024-02-15T06:44:34;14.40;;;9.00;;
11675;SDS011;5894;42.768;23.404;2024-02-15T06:47:02;11.40;;;8.30;;
11675;SDS011;5894;42.768;23.404;2024-02-15T06:49:29;12.93;;;8.90;;
11675;SDS011;5894;42.768;23.404;2024-02-15T06:51:56;14.30;;;9.03;;
11675;SDS011;5894;42.768;23.404;2024-02-15T06:54:24;18.60;;;9.40;;
11675;SDS011;5894;42.768;23.404;2024-02-15T06:56:51;12.97;;;9.13;;
11675;SDS011;5894;42.768;23.404;2024-02-15T06:59:19;14.50;;;9.13;;
11675;SDS011;5894;42.768;23.404;2024-02-15T07:01:49;12.40;;;9.30;;
11675;SDS011;5894;42.768;23.404;2024-02-15T07:04:17;15.77;;;8.87;;
11675;SDS011;5894;42.768;23.404;2024-02-15T07:06:44;13.73;;;8.70;;
11675;SDS011;5894;42.768;23.404;2024-02-15T07:09:14;13.60;;;8.83;;
11675;SDS011;5894;42.768;23.404;2024-02-15T07:11:46;12.97;;;8.53;;
11675;SDS011;5894;42.768;23.404;2024-02-15T07:14:13;12.37;;;8.03;;
11675;SDS011;5894;42.768;23.404;2024-02-15T07:16:43;15.43;;;8.60;;
11675;SDS011;5894;42.768;23.404;2024-02-15T07:19:12;11.63;;;7.97;;
11675;SDS011;5894;42.768;23.404;2024-02-15T07:21:39;14.20;;;8.40;;
11675;SDS011;5894;42.768;23.404;2024-02-15T07:24:06;11.70;;;8.33;;
11675;SDS011;5894;42.768;23.404;2024-02-15T07:26:34;14.50;;;8.53;;
11675;SDS011;5894;42.768;23.404;2024-02-15T07:29:02;9.73;;;7.47;;
11675;SDS011;5894;42.768;23.404;2024-02-15T07:31:31;11.77;;;7.70;;
11675;SDS011;5894;42.768;23.404;2024-02-15T07:33:58;12.80;;;7.80;;
11675;SDS011;5894;42.768;23.404;2024-02-15T07:36:27;11.73;;;8.10;;
11675;SDS011;5894;42.768;23.404;2024-02-15T07:38:54;12.50;;;8.07;;
11675;SDS011;5894;42.768;23.404;2024-02-15T07:41:23;14.03;;;7.80;;
11675;SDS011;5894;42.768;23.404;2024-02-15T07:43:50;11.03;;;7.73;;
11675;SDS011;5894;42.768;23.404;2024-02-15T07:46:20;11.17;;;8.00;;
11675;SDS011;5894;42.768;23.404;2024-02-15T07:48:48;9.93;;;7.87;;
11675;SDS011;5894;42.768;23.404;2024-02-15T07:51:16;12.30;;;8.00;;
11675;SDS011;5894;42.768;23.404;2024-02-15T07:53:45;11.60;;;7.73;;
11675;SDS011;5894;42.768;23.404;2024-02-15T07:56:13;15.23;;;8.03;;
11675;SDS011;5894;42.768;23.404;2024-02-15T07:58:41;12.90;;;7.53;;
11675;SDS011;5894;42.768;23.404;2024-02-15T08:01:11;11.70;;;7.77;;
11675;SDS011;5894;42.768;23.404;2024-02-15T08:03:38;12.47;;;7.83;;
11675;SDS011;5894;42.768;23.404;2024-02-15T08:06:09;10.80;;;7.47;;
11675;SDS011;5894;42.768;23.404;2024-02-15T08:08:38;10.73;;;7.70;;
11675;SDS011;5894;42.768;23.404;2024-02-15T08:11:07;11.57;;;7.40;;
11675;SDS011;5894;42.768;23.404;2024-02-15T08:13:40;14.00;;;7.30;;
11675;SDS011;5894;42.768;23.404;2024-02-15T08:16:09;11.57;;;7.60;;
11675;SDS011;5894;42.768;23.404;2024-02-15T08:18:37;17.37;;;7.63;;
11675;SDS011;5894;42.768;23.404;2024-02-15T08:21:05;10.97;;;7.33;;
11675;SDS011;5894;42.768;23.404;2024-02-15T08:23:32;11.23;;;7.80;;
11675;SDS011;5894;42.768;23.404;2024-02-15T08:25:58;13.37;;;7.80;;
11675;SDS011;5894;42.768;23.404;2024-02-15T08:28:27;11.27;;;7.97;;
11675;SDS011;5894;42.768;23.404;2024-02-15T08:30:54;13.60;;;8.20;;
11675;SDS011;5894;42.768;23.404;2024-02-15T08:33:22;15.47;;;8.00;;
11675;SDS011;5894;42.768;23.404;2024-02-15T08:35:49;12.57;;;7.97;;
11675;SDS011;5894;42.768;23.404;2024-02-15T08:38:20;12.33;;;7.60;;
11675;SDS011;5894;42.768;23.404;2024-02-15T08:40:47;10.23;;;6.90;;
11675;SDS011;5894;42.768;23.404;2024-02-15T08:43:14;11.03;;;7.63;;
11675;SDS011;5894;42.768;23.404;2024-02-15T08:45:43;10.27;;;7.10;;
11675;SDS011;5894;42.768;23.404;2024-02-15T08:48:10;12.20;;;7.13;;
11675;SDS011;5894;42.768;23.404;2024-02-15T08:50:37;9.73;;;6.83;;
11675;SDS011;5894;42.768;23.404;2024-02-15T08:53:06;14.27;;;6.83;;
11675;SDS011;5894;42.768;23.404;2024-02-15T08:55:33;10.40;;;7.17;;
11675;SDS011;5894;42.768;23.404;2024-02-15T08:58:01;14.23;;;8.17;;
11675;SDS011;5894;42.768;23.404;2024-02-15T09:00:29;10.83;;;7.03;;
11675;SDS011;5894;42.768;23.404;2024-02-15T09:02:58;10.47;;;7.17;;
11675;SDS011;5894;42.768;23.404;2024-02-15T09:05:25;13.73;;;8.60;;
11675;SDS011;5894;42.768;23.404;2024-02-15T09:07:52;12.17;;;7.67;;
11675;SDS011;5894;42.768;23.404;2024-02-15T09:10:19;14.87;;;7.53;;
11675;SDS011;5894;42.768;23.404;2024-02-15T09:12:47;12.17;;;7.20;;
11675;SDS011;5894;42.768;23.404;2024-02-15T09:15:15;21.33;;;13.07;;
11675;SDS011;5894;42.768;23.404;2024-02-15T09:17:42;13.13;;;7.90;;
11675;SDS011;5894;42.768;23.404;2024-02-15T09:20:12;10.37;;;7.30;;
11675;SDS011;5894;42.768;23.404;2024-02-15T09:22:46;9.67;;;7.33;;
11675;SDS011;5894;42.768;23.404;2024-02-15T09:25:14;13.53;;;7.27;;
11675;SDS011;5894;42.768;23.404;2024-02-15T09:27:41;12.33;;;7.20;;
11675;SDS011;5894;42.768;23.404;2024-02-15T09:30:09;12.17;;;7.10;;
11675;SDS011;5894;42.768;23.404;2024-02-15T09:32:37;9.97;;;6.53;;
11675;SDS011;5894;42.768;23.404;2024-02-15T09:35:05;9.30;;;7.00;;
11675;SDS011;5894;42.768;23.404;2024-02-15T09:37:35;10.03;;;6.57;;
11675;SDS011;5894;42.768;23.404;2024-02-15T09:40:07;9.67;;;6.90;;
11675;SDS011;5894;42.768;23.404;2024-02-15T09:42:37;7.63;;;6.43;;
11675;SDS011;5894;42.768;23.404;2024-02-15T09:45:05;9.27;;;6.57;;
11675;SDS011;5894;42.768;23.404;2024-02-15T09:47:33;10.43;;;6.83;;
11675;SDS011;5894;42.768;23.404;2024-02-15T09:50:01;11.77;;;6.20;;
11675;SDS011;5894;42.768;23.404;2024-02-15T09:52:29;12.60;;;6.53;;
11675;SDS011;5894;42.768;23.404;2024-02-15T09:55:00;13.17;;;6.53;;
11675;SDS011;5894;42.768;23.404;2024-02-15T09:57:29;10.07;;;6.47;;
11675;SDS011;5894;42.768;23.404;2024-02-15T09:59:58;12.17;;;7.03;;
11675;SDS011;5894;42.768;23.404;2024-02-15T10:02:26;10.63;;;6.50;;
11675;SDS011;5894;42.768;23.404;2024-02-15T10:04:53;8.00;;;6.17;;
11675;SDS011;5894;42.768;23.404;2024-02-15T10:07:22;8.80;;;5.90;;
11675;SDS011;5894;42.768;23.404;2024-02-15T10:09:49;8.97;;;5.93;;
11675;SDS011;5894;42.768;23.404;2024-02-15T10:12:18;10.13;;;6.00;;
11675;SDS011;5894;42.768;23.404;2024-02-15T10:14:49;10.20;;;6.17;;
11675;SDS011;5894;42.768;23.404;2024-02-15T10:17:18;8.77;;;5.93;;
11675;SDS011;5894;42.768;23.404;2024-02-15T10:19:48;11.17;;;5.97;;
11675;SDS011;5894;42.768;23.404;2024-02-15T10:22:29;8.07;;;6.03;;
11675;SDS011;5894;42.768;23.404;2024-02-15T10:25:09;9.20;;;5.80;;
11675;SDS011;5894;42.768;23.404;2024-02-15T10:27:38;8.73;;;5.70;;
11675;SDS011;5894;42.768;23.404;2024-02-15T10:30:15;7.90;;;5.77;;
11675;SDS011;5894;42.768;23.404;2024-02-15T10:32:43;9.17;;;6.07;;
11675;SDS011;5894;42.768;23.404;2024-02-15T10:35:11;8.90;;;5.97;;
11675;SDS011;5894;42.768;23.404;2024-02-15T10:37:48;10.90;;;7.97;;
11675;SDS011;5894;42.768;23.404;2024-02-15T10:40:19;10.43;;;6.20;;
11675;SDS011;5894;42.768;23.404;2024-02-15T10:42:48;11.47;;;5.90;;
11675;SDS011;5894;42.768;23.404;2024-02-15T10:45:18;9.17;;;5.90;;
11675;SDS011;5894;42.768;23.404;2024-02-15T10:47:45;8.27;;;5.40;;
11675;SDS011;5894;42.768;23.404;2024-02-15T10:50:13;8.67;;;5.97;;
11675;SDS011;5894;42.768;23.404;2024-02-15T10:52:43;8.97;;;5.40;;
11675;SDS011;5894;42.768;23.404;2024-02-15T10:55:19;7.83;;;5.67;;
11675;SDS011;5894;42.768;23.404;2024-02-15T10:57:53;6.27;;;5.10;;
11675;SDS011;5894;42.768;23.404;2024-02-15T11:00:29;8.30;;;5.93;;
11675;SDS011;5894;42.768;23.404;2024-02-15T11:03:00;7.33;;;5.50;;
11675;SDS011;5894;42.768;23.404;2024-02-15T11:05:31;13.93;;;6.00;;
11675;SDS011;5894;42.768;23.404;2024-02-15T11:08:03;8.40;;;5.77;;
11675;SDS011;5894;42.768;23.404;2024-02-15T11:10:33;8.53;;;5.20;;
11675;SDS011;5894;42.768;23.404;2024-02-15T11:13:02;8.70;;;5.73;;
11675;SDS011;5894;42.768;23.404;2024-02-15T11:15:45;8.83;;;6.00;;
11675;SDS011;5894;42.768;23.404;2024-02-15T11:21:16;9.63;;;6.47;;
11675;SDS011;5894;42.768;23.404;2024-02-15T11:23:43;7.40;;;5.97;;
11675;SDS011;5894;42.768;23.404;2024-02-15T11:35:05;9.53;;;5.70;;
11675;SDS011;5894;42.768;23.404;2024-02-15T11:46:23;7.03;;;5.55;;
11675;SDS011;5894;42.768;23.404;2024-02-15T11:48:56;6.80;;;5.25;;
11675;SDS011;5894;42.768;23.404;2024-02-15T11:51:24;9.93;;;5.18;;
11675;SDS011;5894;42.768;23.404;2024-02-15T11:54:02;6.38;;;5.30;;
11675;SDS011;5894;42.768;23.404;2024-02-15T11:59:19;8.57;;;5.68;;
11675;SDS011;5894;42.768;23.404;2024-02-15T12:01:57;7.10;;;5.23;;
11675;SDS011;5894;42.768;23.404;2024-02-15T12:04:43;8.75;;;5.00;;
11675;SDS011;5894;42.768;23.404;2024-02-15T12:07:28;6.60;;;5.07;;
11675;SDS011;5894;42.768;23.404;2024-02-15T12:10:15;8.05;;;5.10;;
11675;SDS011;5894;42.768;23.404;2024-02-15T12:13:00;7.28;;;5.05;;
11675;SDS011;5894;42.768;23.404;2024-02-15T12:15:55;7.55;;;5.75;;
11675;SDS011;5894;42.768;23.404;2024-02-15T12:18:42;11.43;;;6.47;;
11675;SDS011;5894;42.768;23.404;2024-02-15T12:21:12;12.88;;;7.47;;
11675;SDS011;5894;42.768;23.404;2024-02-15T12:23:42;9.63;;;5.50;;
11675;SDS011;5894;42.768;23.404;2024-02-15T12:26:11;8.48;;;5.25;;
11675;SDS011;5894;42.768;23.404;2024-02-15T12:28:40;5.72;;;4.93;;
11675;SDS011;5894;42.768;23.404;2024-02-15T12:31:08;9.15;;;5.18;;
11675;SDS011;5894;42.768;23.404;2024-02-15T12:33:38;11.73;;;6.38;;
11675;SDS011;5894;42.768;23.404;2024-02-15T12:36:05;9.35;;;5.68;;
11675;SDS011;5894;42.768;23.404;2024-02-15T12:38:35;6.47;;;5.20;;
11675;SDS011;5894;42.768;23.404;2024-02-15T12:41:03;5.82;;;4.70;;
11675;SDS011;5894;42.768;23.404;2024-02-15T12:43:44;6.18;;;4.55;;
11675;SDS011;5894;42.768;23.404;2024-02-15T12:46:11;7.15;;;5.00;;
11675;SDS011;5894;42.768;23.404;2024-02-15T12:48:38;7.00;;;4.85;;
11675;SDS011;5894;42.768;23.404;2024-02-15T12:51:12;6.50;;;5.00;;
11675;SDS011;5894;42.768;23.404;2024-02-15T12:53:41;7.20;;;5.10;;
11675;SDS011;5894;42.768;23.404;2024-02-15T12:56:09;6.70;;;4.90;;
11675;SDS011;5894;42.768;23.404;2024-02-15T12:58:36;5.80;;;4.80;;
11675;SDS011;5894;42.768;23.404;2024-02-15T13:01:04;7.15;;;4.95;;
11675;SDS011;5894;42.768;23.404;2024-02-15T13:03:31;9.52;;;5.03;;
11675;SDS011;5894;42.768;23.404;2024-02-15T13:05:58;6.20;;;4.93;;
11675;SDS011;5894;42.768;23.404;2024-02-15T13:08:25;7.47;;;5.03;;
11675;SDS011;5894;42.768;23.404;2024-02-15T13:10:53;6.25;;;4.95;;
11675;SDS011;5894;42.768;23.404;2024-02-15T13:13:21;5.70;;;4.30;;
11675;SDS011;5894;42.768;23.404;2024-02-15T13:15:48;6.38;;;4.88;;
11675;SDS011;5894;42.768;23.404;2024-02-15T13:18:17;5.72;;;4.68;;
11675;SDS011;5894;42.768;23.404;2024-02-15T13:20:43;6.03;;;4.63;;
11675;SDS011;5894;42.768;23.404;2024-02-15T13:23:13;7.63;;;5.72;;
11675;SDS011;5894;42.768;23.404;2024-02-15T13:25:47;7.72;;;4.57;;
11675;SDS011;5894;42.768;23.404;2024-02-15T13:28:17;7.82;;;4.40;;
11675;SDS011;5894;42.768;23.404;2024-02-15T13:30:44;5.90;;;4.85;;
11675;SDS011;5894;42.768;23.404;2024-02-15T13:33:11;5.32;;;4.25;;
11675;SDS011;5894;42.768;23.404;2024-02-15T13:35:38;5.55;;;4.45;;
11675;SDS011;5894;42.768;23.404;2024-02-15T13:38:06;6.35;;;4.32;;
11675;SDS011;5894;42.768;23.404;2024-02-15T13:40:39;6.65;;;4.43;;
11675;SDS011;5894;42.768;23.404;2024-02-15T13:43:07;4.90;;;4.25;;
11675;SDS011;5894;42.768;23.404;2024-02-15T13:45:38;5.55;;;4.20;;
11675;SDS011;5894;42.768;23.404;2024-02-15T13:48:06;5.57;;;4.22;;
11675;SDS011;5894;42.768;23.404;2024-02-15T13:50:34;6.82;;;4.45;;
11675;SDS011;5894;42.768;23.404;2024-02-15T13:53:01;7.72;;;4.90;;
11675;SDS011;5894;42.768;23.404;2024-02-15T13:55:30;7.05;;;4.50;;
11675;SDS011;5894;42.768;23.404;2024-02-15T13:57:57;4.55;;;4.13;;
11675;SDS011;5894;42.768;23.404;2024-02-15T14:00:25;6.05;;;4.50;;
11675;SDS011;5894;42.768;23.404;2024-02-15T14:02:58;6.05;;;4.50;;
11675;SDS011;5894;42.768;23.404;2024-02-15T14:05:27;7.53;;;3.95;;
11675;SDS011;5894;42.768;23.404;2024-02-15T14:07:55;8.13;;;3.80;;
11675;SDS011;5894;42.768;23.404;2024-02-15T14:10:22;5.13;;;3.70;;
11675;SDS011;5894;42.768;23.404;2024-02-15T14:12:50;3.88;;;3.47;;
11675;SDS011;5894;42.768;23.404;2024-02-15T14:15:20;12.38;;;5.38;;
11675;SDS011;5894;42.768;23.404;2024-02-15T14:17:47;7.03;;;3.47;;
11675;SDS011;5894;42.768;23.404;2024-02-15T14:20:16;6.22;;;4.00;;
11675;SDS011;5894;42.768;23.404;2024-02-15T14:22:44;4.38;;;3.70;;
11675;SDS011;5894;42.768;23.404;2024-02-15T14:25:14;3.90;;;3.50;;
11675;SDS011;5894;42.768;23.404;2024-02-15T14:27:41;5.28;;;3.70;;
11675;SDS011;5894;42.768;23.404;2024-02-15T14:30:09;7.63;;;4.95;;
11675;SDS011;5894;42.768;23.404;2024-02-15T14:32:54;11.20;;;5.90;;
11675;SDS011;5894;42.768;23.404;2024-02-15T14:35:30;7.28;;;4.45;;
11675;SDS011;5894;42.768;23.404;2024-02-15T14:38:00;9.10;;;6.00;;
11675;SDS011;5894;42.768;23.404;2024-02-15T14:40:28;32.95;;;19.92;;
11675;SDS011;5894;42.768;23.404;2024-02-15T14:42:55;30.38;;;14.75;;
11675;SDS011;5894;42.768;23.404;2024-02-15T14:45:22;16.30;;;8.77;;
11675;SDS011;5894;42.768;23.404;2024-02-15T14:47:50;9.43;;;5.65;;
11675;SDS011;5894;42.768;23.404;2024-02-15T14:50:17;5.82;;;4.50;;
11675;SDS011;5894;42.768;23.404;2024-02-15T14:52:47;8.30;;;4.00;;
11675;SDS011;5894;42.768;23.404;2024-02-15T14:55:14;6.45;;;3.75;;
11675;SDS011;5894;42.768;23.404;2024-02-15T14:57:42;6.68;;;4.60;;
11675;SDS011;5894;42.768;23.404;2024-02-15T15:00:09;8.00;;;4.35;;
11675;SDS011;5894;42.768;23.404;2024-02-15T15:02:37;6.68;;;4.45;;
11675;SDS011;5894;42.768;23.404;2024-02-15T15:05:06;9.37;;;5.50;;
11675;SDS011;5894;42.768;23.404;2024-02-15T15:07:52;9.57;;;5.50;;
11675;SDS011;5894;42.768;23.404;2024-02-15T15:10:37;20.37;;;10.10;;
11675;SDS011;5894;42.768;23.404;2024-02-15T15:13:21;18.37;;;10.20;;
11675;SDS011;5894;42.768;23.404;2024-02-15T15:15:48;23.23;;;12.33;;